createdAt,value
2018-12-13T00:02:11.062Z,95729.95
2018-12-13T00:04:46.135Z,95723.44
2018-12-13T00:07:20.978Z,95720.66
2018-12-13T00:09:55.785Z,95713.44
2018-12-13T00:12:30.222Z,95714.59
2018-12-13T00:15:06.210Z,95705.29
2018-12-13T00:17:41.210Z,95704.02
2018-12-13T00:20:16.201Z,95705.06
2018-12-13T00:22:51.295Z,95692.86
2018-12-13T00:25:26.059Z,95696.23
2018-12-13T00:28:00.505Z,95694.59
2018-12-13T00:30:35.417Z,95693.91
2018-12-13T00:33:10.170Z,95695.19
2018-12-13T00:35:44.454Z,95686.22
2018-12-13T00:38:18.991Z,95686.94
2018-12-13T00:40:53.675Z,95681.11
2018-12-13T00:43:29.145Z,95683.89
2018-12-13T00:46:04.921Z,95684.09
2018-12-13T00:48:39.427Z,95681.58
2018-12-13T00:51:13.927Z,95679.47
2018-12-13T00:53:49.453Z,95686.30
2018-12-13T00:56:23.832Z,95677.84
2018-12-13T00:58:58.498Z,95678.31
2018-12-13T01:01:33.097Z,95680.98
2018-12-13T01:04:08.361Z,95677.03
2018-12-13T01:06:45.993Z,95676.09
2018-12-13T01:09:20.586Z,95678.65
2018-12-13T01:11:55.861Z,95675.05
2018-12-13T01:14:30.582Z,95677.80
2018-12-13T01:17:05.153Z,95671.77
2018-12-13T01:19:39.546Z,95676.30
2018-12-13T01:22:14.226Z,95670.02
2018-12-13T01:24:49.206Z,95671.19
2018-12-13T01:27:23.740Z,95670.87
2018-12-13T01:29:58.378Z,95667.16
2018-12-13T01:32:33.272Z,95665.73
2018-12-13T01:35:08.645Z,95667.27
2018-12-13T01:37:43.554Z,95662.05
2018-12-13T01:40:18.170Z,95660.78
2018-12-13T01:42:52.638Z,95663.80
2018-12-13T01:45:27.794Z,95667.47
2018-12-13T01:48:04.213Z,95662.24
2018-12-13T01:50:39.107Z,95663.75
2018-12-13T01:53:13.438Z,95657.22
2018-12-13T01:55:48.066Z,95654.92
2018-12-13T01:58:23.326Z,95648.30
2018-12-13T02:00:58.030Z,95650.52
2018-12-13T02:03:32.473Z,95644.22
2018-12-13T02:06:07.392Z,95641.01
2018-12-13T02:08:42.130Z,95636.35
2018-12-13T02:11:16.645Z,95636.34
2018-12-13T02:13:51.044Z,95636.44
2018-12-13T02:16:26.075Z,95638.41
2018-12-13T02:19:00.573Z,95636.20
2018-12-13T02:21:35.374Z,95632.73
2018-12-13T02:24:10.449Z,95637.48
2018-12-13T02:26:45.450Z,95632.86
2018-12-13T02:29:20.427Z,95628.39
2018-12-13T02:31:55.496Z,95624.56
2018-12-13T02:34:30.023Z,95622.38
2018-12-13T02:40:01.089Z,95611.80
2018-12-13T02:42:35.542Z,95616.12
2018-12-13T02:45:10.267Z,95618.78
2018-12-13T02:50:14.760Z,95612.48
2018-12-13T02:52:49.594Z,95614.70
2018-12-13T02:55:24.139Z,95614.25
2018-12-13T02:57:59.057Z,95610.77
2018-12-13T03:00:34.309Z,95609.73
2018-12-13T03:03:09.038Z,95608.46
2018-12-13T03:05:43.419Z,95607.66
2018-12-13T03:08:18.092Z,95607.89
2018-12-13T03:10:53.144Z,95603.69
2018-12-13T03:13:28.730Z,95603.10
2018-12-13T03:16:04.394Z,95599.06
2018-12-13T03:18:38.757Z,95601.34
2018-12-13T03:21:13.671Z,95601.95
2018-12-13T03:24:07.332Z,95601.25
2018-12-13T03:26:42.924Z,95597.30
2018-12-13T03:29:17.241Z,95596.61
2018-12-13T03:31:52.151Z,95592.07
2018-12-13T03:34:26.863Z,95585.93
2018-12-13T03:39:58.056Z,95579.75
2018-12-13T03:42:32.632Z,95578.82
2018-12-13T03:45:08.127Z,95583.00
2018-12-13T03:47:43.223Z,95583.81
2018-12-13T03:50:17.783Z,95580.09
2018-12-13T03:52:52.522Z,95573.45
2018-12-13T03:55:27.608Z,95578.13
2018-12-13T03:58:02.826Z,95577.08
2018-12-13T04:00:37.924Z,95569.86
2018-12-13T04:03:12.634Z,95567.22
2018-12-13T04:05:47.510Z,95565.13
2018-12-13T04:08:22.315Z,95561.88
2018-12-13T04:10:56.647Z,95553.51
2018-12-13T04:13:31.833Z,95554.66
2018-12-13T04:16:06.727Z,95551.30
2018-12-13T04:18:41.665Z,95545.85
2018-12-13T04:21:16.700Z,95544.34
2018-12-13T04:23:51.910Z,95542.59
2018-12-13T04:26:27.092Z,95550.25
2018-12-13T04:29:02.178Z,95537.38
2018-12-13T04:31:37.444Z,95536.23
2018-12-13T04:34:12.607Z,95540.98
2018-12-13T04:36:47.783Z,95536.10
2018-12-13T04:39:22.382Z,95530.75
2018-12-13T04:41:57.179Z,95538.55
2018-12-13T04:44:31.887Z,95537.15
2018-12-13T04:47:08.523Z,95526.56
2018-12-13T04:49:42.946Z,95524.47
2018-12-13T04:52:17.842Z,95522.38
2018-12-13T04:54:52.250Z,95525.53
2018-12-13T04:57:27.105Z,95518.10
2018-12-13T05:00:02.089Z,95510.31
2018-12-13T05:02:37.543Z,95514.27
2018-12-13T05:05:13.588Z,95510.91
2018-12-13T05:07:49.469Z,95508.69
2018-12-13T05:10:35.111Z,95514.26
2018-12-13T05:13:09.645Z,95506.49
2018-12-13T05:15:44.200Z,95504.73
2018-12-13T05:18:24.226Z,95503.92
2018-12-13T05:20:59.079Z,95491.27
2018-12-13T05:23:33.519Z,95491.04
2018-12-13T05:26:08.046Z,95494.28
2018-12-13T05:28:42.750Z,95490.11
2018-12-13T05:31:17.734Z,95483.27
2018-12-13T05:33:52.533Z,95489.09
2018-12-13T05:36:27.154Z,95487.23
2018-12-13T05:39:01.705Z,95484.55
2018-12-13T05:41:36.854Z,95482.33
2018-12-13T05:44:26.115Z,95484.22
2018-12-13T05:50:13.275Z,95485.23
2018-12-13T05:52:48.186Z,95484.56
2018-12-13T05:55:23.246Z,95481.77
2018-12-13T06:00:54.627Z,95475.86
2018-12-13T06:03:29.351Z,95472.83
2018-12-13T06:06:04.655Z,95471.90
2018-12-13T06:08:39.391Z,95477.02
2018-12-13T06:11:14.050Z,95474.00
2018-12-13T06:13:49.074Z,95473.08
2018-12-13T06:16:23.578Z,95471.30
2018-12-13T06:18:58.282Z,95472.61
2018-12-13T06:21:36.857Z,95470.97
2018-12-13T06:24:09.892Z,95471.22
2018-12-13T06:26:44.766Z,95467.27
2018-12-13T06:29:19.393Z,95474.81
2018-12-13T06:31:54.338Z,95471.44
2018-12-13T06:34:29.093Z,95467.95
2018-12-13T06:37:03.653Z,95467.48
2018-12-13T06:39:38.734Z,95471.08
2018-12-13T06:42:13.231Z,95478.75
2018-12-13T06:44:47.569Z,95473.30
2018-12-13T06:47:22.007Z,95474.09
2018-12-13T06:49:57.034Z,95476.66
2018-12-13T06:52:31.613Z,95467.14
2018-12-13T06:55:07.114Z,95470.52
2018-12-13T06:57:41.973Z,95467.73
2018-12-13T07:00:16.390Z,95468.52
2018-12-13T07:02:51.047Z,95471.67
2018-12-13T07:05:25.911Z,95468.30
2018-12-13T07:08:00.374Z,95472.38
2018-12-13T07:10:35.104Z,95479.34
2018-12-13T07:13:09.991Z,95478.52
2018-12-13T07:15:45.442Z,95476.41
2018-12-13T07:18:20.375Z,95473.54
2018-12-13T07:20:55.281Z,95473.41
2018-12-13T07:23:29.554Z,95474.92
2018-12-13T07:26:05.225Z,95480.95
2018-12-13T07:28:40.187Z,95471.44
2018-12-13T07:31:15.348Z,95477.47
2018-12-13T07:33:50.098Z,95474.81
2018-12-13T07:36:25.289Z,95471.42
2018-12-13T07:39:00.038Z,95467.70
2018-12-13T07:41:35.185Z,95466.30
2018-12-13T07:44:09.926Z,95468.64
2018-12-13T07:46:44.843Z,95468.18
2018-12-13T07:49:19.598Z,95468.99
2018-12-13T07:51:54.383Z,95465.76
2018-12-13T07:54:29.155Z,95473.66
2018-12-13T07:57:04.247Z,95472.25
2018-12-13T07:59:38.949Z,95471.30
2018-12-13T08:02:13.856Z,95461.57
2018-12-13T08:04:48.406Z,95464.47
2018-12-13T08:07:22.803Z,95468.06
2018-12-13T08:09:57.552Z,95465.73
2018-12-13T08:12:32.338Z,95466.34
2018-12-13T08:15:07.676Z,95468.99
2018-12-13T08:17:43.094Z,95464.34
2018-12-13T08:20:18.651Z,95459.23
2018-12-13T08:22:53.480Z,95454.70
2018-12-13T08:25:27.922Z,95463.78
2018-12-13T08:28:02.906Z,95463.53
2018-12-13T08:30:37.995Z,95458.55
2018-12-13T08:33:12.783Z,95457.97
2018-12-13T08:35:47.318Z,95454.71
2018-12-13T08:38:27.118Z,95449.78
2018-12-13T08:40:59.255Z,95449.25
2018-12-13T08:43:33.855Z,95444.11
2018-12-13T08:46:09.306Z,95447.70
2018-12-13T08:48:43.592Z,95442.69
2018-12-13T08:51:18.678Z,95442.09
2018-12-13T08:53:53.339Z,95432.47
2018-12-13T08:56:27.935Z,95435.92
2018-12-13T08:59:02.922Z,95441.39
2018-12-13T09:01:37.856Z,95431.53
2018-12-13T09:04:12.553Z,95420.47
2018-12-13T09:06:47.531Z,95422.44
2018-12-13T09:09:23.026Z,95434.23
2018-12-13T09:11:58.186Z,95420.77
2018-12-13T09:14:32.870Z,95423.39
2018-12-13T09:17:07.439Z,95422.38
2018-12-13T09:19:42.675Z,95431.89
2018-12-13T09:22:17.719Z,95427.94
2018-12-13T09:24:52.678Z,95426.34
2018-12-13T09:27:27.839Z,95428.87
2018-12-13T09:30:02.673Z,95427.58
2018-12-13T09:32:37.185Z,95422.80
2018-12-13T09:35:11.890Z,95424.55
2018-12-13T09:37:47.723Z,95419.75
2018-12-13T09:40:22.492Z,95418.44
2018-12-13T09:42:57.213Z,95423.20
2018-12-13T09:45:32.252Z,95425.41
2018-12-13T09:48:07.302Z,95415.58
2018-12-13T09:50:42.000Z,95411.02
2018-12-13T09:55:48.639Z,95408.99
2018-12-13T09:58:23.157Z,95405.37
2018-12-13T10:00:58.450Z,95401.55
2018-12-13T10:03:33.091Z,95394.12
2018-12-13T10:06:08.906Z,95394.00
2018-12-13T10:08:46.339Z,95390.07
2018-12-13T10:11:20.002Z,95390.61
2018-12-13T10:13:54.474Z,95392.60
2018-12-13T10:16:29.607Z,95384.96
2018-12-13T10:19:04.533Z,95385.99
2018-12-13T10:21:39.683Z,95386.42
2018-12-13T10:24:15.104Z,95381.38
2018-12-13T10:26:50.280Z,95381.41
2018-12-13T10:29:25.310Z,95367.69
2018-12-13T10:31:59.719Z,95375.19
2018-12-13T10:34:34.648Z,95372.00
2018-12-13T10:37:09.042Z,95370.03
2018-12-13T10:39:43.452Z,95368.38
2018-12-13T10:42:18.473Z,95364.58
2018-12-13T10:44:53.939Z,95360.31
2018-12-13T10:47:29.669Z,95365.68
2018-12-13T10:50:05.999Z,95363.85
2018-12-13T10:52:40.659Z,95358.66
2018-12-13T10:55:15.817Z,95364.48
2018-12-13T10:57:50.586Z,95358.99
2018-12-13T11:00:30.249Z,95356.01
2018-12-13T11:03:23.980Z,95356.99
2018-12-13T11:05:59.000Z,95360.31
2018-12-13T11:08:33.955Z,95359.20
2018-12-13T11:11:08.869Z,95356.92
2018-12-13T11:13:43.327Z,95352.02
2018-12-13T11:16:17.941Z,95350.84
2018-12-13T11:18:52.996Z,95350.38
2018-12-13T11:21:28.935Z,95352.69
2018-12-13T11:24:03.863Z,95347.31
2018-12-13T11:26:38.750Z,95347.02
2018-12-13T11:29:24.474Z,95345.66
2018-12-13T11:31:59.083Z,95345.78
2018-12-13T11:34:33.506Z,95343.44
2018-12-13T11:37:08.253Z,95341.56
2018-12-13T11:39:42.927Z,95338.45
2018-12-13T11:42:17.672Z,95336.16
2018-12-13T11:44:52.182Z,95343.02
2018-12-13T11:47:27.068Z,95330.62
2018-12-13T11:50:01.652Z,95328.69
2018-12-13T11:52:36.546Z,95332.44
2018-12-13T11:55:22.475Z,95337.34
2018-12-13T11:57:57.414Z,95334.66
2018-12-13T12:00:31.794Z,95341.31
2018-12-13T12:03:06.737Z,95337.39
2018-12-13T12:05:41.843Z,95335.98
2018-12-13T12:08:16.543Z,95338.03
2018-12-13T12:10:51.319Z,95339.69
2018-12-13T12:13:26.627Z,95341.30
2018-12-13T12:16:01.690Z,95342.55
2018-12-13T12:18:36.149Z,95340.34
2018-12-13T12:21:10.758Z,95342.84
2018-12-13T12:23:45.319Z,95334.31
2018-12-13T12:26:20.602Z,95334.54
2018-12-13T12:28:55.181Z,95333.80
2018-12-13T12:31:29.994Z,95335.55
2018-12-13T12:34:04.560Z,95338.95
2018-12-13T12:36:39.415Z,95338.58
2018-12-13T12:39:18.626Z,95337.60
2018-12-13T12:41:50.475Z,95333.52
2018-12-13T12:44:27.559Z,95332.53
2018-12-13T12:47:02.671Z,95334.49
2018-12-13T12:49:37.535Z,95340.83
2018-12-13T12:52:12.907Z,95328.55
2018-12-13T12:54:47.630Z,95332.23
2018-12-13T12:57:22.291Z,95335.84
2018-12-13T12:59:57.266Z,95336.94
2018-12-13T13:02:32.797Z,95335.91
2018-12-13T13:05:08.270Z,95323.14
2018-12-13T13:07:42.831Z,95330.89
2018-12-13T13:10:17.657Z,95332.82
2018-12-13T13:12:52.354Z,95335.50
2018-12-13T13:15:27.274Z,95324.94
2018-12-13T13:18:01.908Z,95327.09
2018-12-13T13:20:37.171Z,95325.69
2018-12-13T13:23:12.142Z,95327.93
2018-12-13T13:25:47.664Z,95324.45
2018-12-13T13:28:22.243Z,95323.91
2018-12-13T13:30:57.365Z,95333.20
2018-12-13T13:33:32.129Z,95331.08
2018-12-13T13:36:06.775Z,95327.00
2018-12-13T13:38:41.226Z,95327.53
2018-12-13T13:41:15.981Z,95330.36
2018-12-13T13:43:50.431Z,95330.27
2018-12-13T13:46:25.563Z,95339.57
2018-12-13T13:49:00.655Z,95330.85
2018-12-13T13:51:35.531Z,95335.25
2018-12-13T13:54:09.983Z,95340.15
2018-12-13T13:56:44.561Z,95339.03
2018-12-13T13:59:19.013Z,95334.01
2018-12-13T14:01:54.210Z,95334.85
2018-12-13T14:04:28.555Z,95336.72
2018-12-13T14:10:01.768Z,95342.48
2018-12-13T14:12:36.389Z,95332.10
2018-12-13T14:15:11.880Z,95335.39
2018-12-13T14:17:46.546Z,95338.20
2018-12-13T14:20:21.494Z,95339.02
2018-12-13T14:22:56.314Z,95341.12
2018-12-13T14:25:31.759Z,95340.62
2018-12-13T14:28:06.578Z,95337.95
2018-12-13T14:30:41.286Z,95337.80
2018-12-13T14:33:16.295Z,95336.25
2018-12-13T14:35:50.942Z,95336.28
2018-12-13T14:38:25.967Z,95339.08
2018-12-13T14:41:02.288Z,95335.15
2018-12-13T14:43:37.409Z,95337.67
2018-12-13T14:46:12.578Z,95342.56
2018-12-13T14:48:47.401Z,95342.09
2018-12-13T14:51:21.955Z,95344.66
2018-12-13T14:53:57.513Z,95347.36
2018-12-13T14:56:32.927Z,95347.80
2018-12-13T14:59:07.408Z,95348.14
2018-12-13T15:01:42.586Z,95352.23
2018-12-13T15:04:17.701Z,95358.64
2018-12-13T15:06:52.005Z,95358.98
2018-12-13T15:09:26.526Z,95358.40
2018-12-13T15:12:01.302Z,95363.28
2018-12-13T15:14:36.511Z,95361.54
2018-12-13T15:17:11.215Z,95367.00
2018-12-13T15:19:45.948Z,95359.79
2018-12-13T15:22:20.775Z,95358.42
2018-12-13T15:24:55.810Z,95358.09
2018-12-13T15:27:30.213Z,95357.36
2018-12-13T15:30:06.902Z,95354.23
2018-12-13T15:32:41.532Z,95360.02
2018-12-13T15:35:16.198Z,95366.74
2018-12-13T15:37:50.590Z,95359.55
2018-12-13T15:40:25.234Z,95366.44
2018-12-13T15:43:00.309Z,95370.02
2018-12-13T15:45:35.651Z,95366.30
2018-12-13T15:48:10.630Z,95369.09
2018-12-13T15:50:45.534Z,95369.10
2018-12-13T15:53:20.091Z,95362.73
2018-12-13T15:55:54.616Z,95365.97
2018-12-13T15:58:29.531Z,95368.06
2018-12-13T16:01:04.682Z,95368.48
2018-12-13T16:03:39.502Z,95364.44
2018-12-13T16:06:13.966Z,95365.14
2018-12-13T16:08:48.310Z,95367.25
2018-12-13T16:11:22.625Z,95369.31
2018-12-13T16:13:57.552Z,95372.45
2018-12-13T16:16:32.254Z,95371.89
2018-12-13T16:19:07.103Z,95374.55
2018-12-13T16:21:41.454Z,95373.50
2018-12-13T16:24:16.085Z,95378.62
2018-12-13T16:26:51.531Z,95376.51
2018-12-13T16:29:26.242Z,95370.23
2018-12-13T16:32:00.682Z,95382.45
2018-12-13T16:34:35.339Z,95373.29
2018-12-13T16:37:09.926Z,95380.11
2018-12-13T16:39:44.455Z,95382.20
2018-12-13T16:42:19.522Z,95372.32
2018-12-13T16:44:55.974Z,95380.58
2018-12-13T16:47:30.418Z,95378.61
2018-12-13T16:50:07.214Z,95374.66
2018-12-13T16:52:41.720Z,95369.91
2018-12-13T16:55:16.222Z,95376.63
2018-12-13T16:57:51.706Z,95380.70
2018-12-13T17:00:27.094Z,95380.00
2018-12-13T17:03:07.979Z,95379.42
2018-12-13T17:05:42.392Z,95379.78
2018-12-13T17:08:16.790Z,95380.70
2018-12-13T17:10:51.602Z,95377.09
2018-12-13T17:13:25.939Z,95383.49
2018-12-13T17:16:01.423Z,95382.32
2018-12-13T17:18:35.878Z,95382.22
2018-12-13T17:21:10.931Z,95382.45
2018-12-13T17:23:45.587Z,95382.20
2018-12-13T17:26:20.020Z,95383.48
2018-12-13T17:28:54.483Z,95377.89
2018-12-13T17:31:29.490Z,95379.75
2018-12-13T17:34:04.946Z,95382.30
2018-12-13T17:36:40.189Z,95393.58
2018-12-13T17:39:14.723Z,95388.46
2018-12-13T17:41:49.530Z,95398.43
2018-12-13T17:44:24.015Z,95397.06
2018-12-13T17:46:59.210Z,95391.83
2018-12-13T17:49:33.677Z,95396.02
2018-12-13T17:52:09.018Z,95392.52
2018-12-13T17:54:43.698Z,95386.05
2018-12-13T17:57:18.243Z,95384.19
2018-12-13T17:59:53.680Z,95387.54
2018-12-13T18:02:28.254Z,95387.17
2018-12-13T18:05:02.978Z,95379.54
2018-12-13T18:07:37.805Z,95382.69
2018-12-13T18:10:13.154Z,95386.38
2018-12-13T18:12:48.599Z,95388.93
2018-12-13T18:15:23.575Z,95385.93
2018-12-13T18:17:58.547Z,95394.97
2018-12-13T18:20:33.274Z,95390.45
2018-12-13T18:23:07.781Z,95395.78
2018-12-13T18:25:43.771Z,95396.83
2018-12-13T18:28:19.098Z,95395.90
2018-12-13T18:30:53.756Z,95405.98
2018-12-13T18:33:28.963Z,95405.73
2018-12-13T18:36:04.169Z,95402.84
2018-12-13T18:38:38.716Z,95400.16
2018-12-13T18:41:13.583Z,95403.06
2018-12-13T18:43:49.395Z,95393.79
2018-12-13T18:46:24.853Z,95396.33
2018-12-13T18:48:59.482Z,95398.31
2018-12-13T18:51:35.528Z,95404.22
2018-12-13T18:54:10.697Z,95401.92
2018-12-13T18:56:45.371Z,95404.70
2018-12-13T18:59:20.822Z,95402.95
2018-12-13T19:01:55.750Z,95404.91
2018-12-13T19:04:30.894Z,95399.71
2018-12-13T19:07:09.618Z,95400.98
2018-12-13T19:09:47.574Z,95397.16
2018-12-13T19:12:28.130Z,95398.11
2018-12-13T19:15:02.642Z,95399.72
2018-12-13T19:17:37.019Z,95410.03
2018-12-13T19:20:12.882Z,95407.81
2018-12-13T19:22:47.242Z,95409.09
2018-12-13T19:25:22.331Z,95411.98
2018-12-13T19:27:57.195Z,95411.73
2018-12-13T19:30:32.100Z,95418.34
2018-12-13T19:33:07.127Z,95413.00
2018-12-13T19:35:41.966Z,95413.64
2018-12-13T19:38:16.494Z,95414.00
2018-12-13T19:40:51.929Z,95410.75
2018-12-13T19:43:26.858Z,95417.01
2018-12-13T19:46:01.505Z,95418.28
2018-12-13T19:48:36.536Z,95417.56
2018-12-13T19:51:11.215Z,95414.78
2018-12-13T19:53:45.819Z,95412.50
2018-12-13T19:56:20.497Z,95410.04
2018-12-13T19:58:55.438Z,95414.80
2018-12-13T20:01:30.675Z,95417.36
2018-12-13T20:04:05.287Z,95420.37
2018-12-13T20:06:39.981Z,95411.44
2018-12-13T20:09:14.375Z,95411.32
2018-12-13T20:14:47.780Z,95425.95
2018-12-13T20:17:34.582Z,95416.66
2018-12-13T20:20:18.867Z,95418.98
2018-12-13T20:22:53.394Z,95430.77
2018-12-13T20:25:34.002Z,95430.28
2018-12-13T20:31:05.752Z,95434.45
2018-12-13T20:33:40.343Z,95434.06
2018-12-13T20:39:13.210Z,95435.84
2018-12-13T20:41:48.224Z,95428.69
2018-12-13T20:44:23.299Z,95430.39
2018-12-13T20:49:55.316Z,95424.20
2018-12-13T20:52:30.087Z,95423.32
2018-12-13T20:55:14.778Z,95427.37
2018-12-13T21:00:47.380Z,95424.48
2018-12-13T21:03:22.227Z,95422.28
2018-12-13T21:05:56.675Z,95422.42
2018-12-13T21:08:31.075Z,95424.39
2018-12-13T21:11:07.576Z,95421.61
2018-12-13T21:13:42.863Z,95426.37
2018-12-13T21:16:17.434Z,95418.34
2018-12-13T21:18:52.102Z,95429.77
2018-12-13T21:21:27.523Z,95423.55
2018-12-13T21:24:02.705Z,95426.56
2018-12-13T21:26:37.897Z,95421.81
2018-12-13T21:29:12.389Z,95423.66
2018-12-13T21:31:46.814Z,95429.93
2018-12-13T21:37:36.921Z,95431.39
2018-12-13T21:40:12.362Z,95432.48
2018-12-13T21:42:47.139Z,95424.94
2018-12-13T21:45:21.438Z,95430.19
2018-12-13T21:50:56.733Z,95431.38
2018-12-13T21:53:31.726Z,95430.80
2018-12-13T21:56:06.349Z,95432.05
2018-12-13T21:58:41.402Z,95429.15
2018-12-13T22:01:16.167Z,95431.12
2018-12-13T22:03:50.980Z,95429.73
2018-12-13T22:06:25.870Z,95425.20
2018-12-13T22:09:00.422Z,95429.96
2018-12-13T22:11:35.202Z,95426.80
2018-12-13T22:14:09.640Z,95426.25
2018-12-13T22:16:56.675Z,95433.20
2018-12-13T22:19:31.653Z,95441.09
2018-12-13T22:22:06.718Z,95439.70
2018-12-13T22:24:41.860Z,95443.17
2018-12-13T22:27:16.420Z,95439.90
2018-12-13T22:29:51.135Z,95446.08
2018-12-13T22:32:25.792Z,95453.03
2018-12-13T22:35:00.419Z,95444.91
2018-12-13T22:37:34.810Z,95440.52
2018-12-13T22:40:09.926Z,95436.69
2018-12-13T22:42:45.077Z,95443.55
2018-12-13T22:45:19.954Z,95444.91
2018-12-13T22:47:54.670Z,95448.05
2018-12-13T22:50:29.758Z,95446.66
2018-12-13T22:53:05.120Z,95443.52
2018-12-13T22:55:40.218Z,95449.67
2018-12-13T22:58:15.399Z,95441.94
2018-12-13T23:00:50.716Z,95447.55
2018-12-13T23:03:26.245Z,95440.83
2018-12-13T23:06:00.688Z,95449.63
2018-12-13T23:08:35.227Z,95446.16
2018-12-13T23:11:10.891Z,95438.73
2018-12-13T23:13:45.555Z,95444.77
2018-12-13T23:16:20.088Z,95438.27
2018-12-13T23:18:54.774Z,95444.07
2018-12-13T23:21:29.888Z,95440.74
2018-12-13T23:24:05.214Z,95443.17
2018-12-13T23:26:40.104Z,95441.44
2018-12-13T23:29:14.754Z,95441.86
2018-12-13T23:31:49.378Z,95441.02
2018-12-13T23:34:24.119Z,95441.16
2018-12-13T23:36:58.546Z,95442.29
2018-12-13T23:39:32.966Z,95446.50
2018-12-13T23:42:07.942Z,95445.30
2018-12-13T23:44:42.850Z,95447.62
2018-12-13T23:47:18.171Z,95446.27
2018-12-13T23:49:52.505Z,95445.66
2018-12-13T23:52:27.554Z,95451.13
2018-12-13T23:55:02.768Z,95445.98
2018-12-13T23:57:37.854Z,95456.14
